sensor_id;sensor_type;location;lat;lon;timestamp;P1;durP1;ratioP1;P2;durP2;ratioP2
1320;SDS011;653;51.480;11.992;2023-02-01T00:02:35;11.20;;;4.20;;
1320;SDS011;653;51.480;11.992;2023-02-01T00:05:07;8.23;;;4.60;;
1320;SDS011;653;51.480;11.992;2023-02-01T00:07:40;9.20;;;4.03;;
1320;SDS011;653;51.480;11.992;2023-02-01T00:10:10;9.87;;;4.40;;
1320;SDS011;653;51.480;11.992;2023-02-01T00:12:45;9.00;;;4.67;;
1320;SDS011;653;51.480;11.992;2023-02-01T00:15:14;12.50;;;3.20;;
1320;SDS011;653;51.480;11.992;2023-02-01T00:17:41;10.50;;;3.23;;
1320;SDS011;653;51.480;11.992;2023-02-01T00:20:07;11.80;;;4.13;;
1320;SDS011;653;51.480;11.992;2023-02-01T00:22:34;9.93;;;3.13;;
1320;SDS011;653;51.480;11.992;2023-02-01T00:25:10;7.73;;;3.20;;
1320;SDS011;653;51.480;11.992;2023-02-01T00:27:36;10.43;;;3.20;;
1320;SDS011;653;51.480;11.992;2023-02-01T00:30:02;12.40;;;3.87;;
1320;SDS011;653;51.480;11.992;2023-02-01T00:32:28;7.40;;;2.83;;
1320;SDS011;653;51.480;11.992;2023-02-01T00:34:57;5.90;;;3.10;;
1320;SDS011;653;51.480;11.992;2023-02-01T00:37:23;10.23;;;3.50;;
1320;SDS011;653;51.480;11.992;2023-02-01T00:40:05;14.27;;;3.37;;
1320;SDS011;653;51.480;11.992;2023-02-01T00:42:37;10.40;;;3.17;;
1320;SDS011;653;51.480;11.992;2023-02-01T00:45:17;8.27;;;3.10;;
1320;SDS011;653;51.480;11.992;2023-02-01T00:47:57;8.23;;;2.10;;
1320;SDS011;653;51.480;11.992;2023-02-01T00:50:23;7.57;;;2.87;;
1320;SDS011;653;51.480;11.992;2023-02-01T00:52:49;8.50;;;2.90;;
1320;SDS011;653;51.480;11.992;2023-02-01T00:55:17;7.13;;;2.83;;
1320;SDS011;653;51.480;11.992;2023-02-01T00:57:43;7.63;;;2.43;;
1320;SDS011;653;51.480;11.992;2023-02-01T01:00:09;9.67;;;3.13;;
1320;SDS011;653;51.480;11.992;2023-02-01T01:02:35;7.60;;;2.37;;
1320;SDS011;653;51.480;11.992;2023-02-01T01:05:01;7.70;;;3.47;;
1320;SDS011;653;51.480;11.992;2023-02-01T01:07:27;10.40;;;2.77;;
1320;SDS011;653;51.480;11.992;2023-02-01T01:09:53;6.77;;;2.80;;
1320;SDS011;653;51.480;11.992;2023-02-01T01:12:18;7.20;;;2.90;;
1320;SDS011;653;51.480;11.992;2023-02-01T01:14:45;12.67;;;4.50;;
1320;SDS011;653;51.480;11.992;2023-02-01T01:17:10;6.90;;;3.10;;
1320;SDS011;653;51.480;11.992;2023-02-01T01:19:36;11.27;;;3.67;;
1320;SDS011;653;51.480;11.992;2023-02-01T01:22:02;15.13;;;3.70;;
1320;SDS011;653;51.480;11.992;2023-02-01T01:24:30;10.07;;;3.30;;
1320;SDS011;653;51.480;11.992;2023-02-01T01:26:55;15.47;;;5.13;;
1320;SDS011;653;51.480;11.992;2023-02-01T01:29:21;14.53;;;5.70;;
1320;SDS011;653;51.480;11.992;2023-02-01T01:31:46;9.17;;;3.07;;
1320;SDS011;653;51.480;11.992;2023-02-01T01:34:12;8.37;;;3.53;;
1320;SDS011;653;51.480;11.992;2023-02-01T01:36:38;14.93;;;3.67;;
1320;SDS011;653;51.480;11.992;2023-02-01T01:39:03;12.00;;;3.40;;
1320;SDS011;653;51.480;11.992;2023-02-01T01:41:31;10.90;;;3.80;;
1320;SDS011;653;51.480;11.992;2023-02-01T01:43:58;8.73;;;3.50;;
1320;SDS011;653;51.480;11.992;2023-02-01T01:46:29;10.70;;;2.70;;
1320;SDS011;653;51.480;11.992;2023-02-01T01:48:58;10.27;;;3.60;;
1320;SDS011;653;51.480;11.992;2023-02-01T01:51:41;17.30;;;3.47;;
1320;SDS011;653;51.480;11.992;2023-02-01T01:56:51;7.03;;;3.23;;
1320;SDS011;653;51.480;11.992;2023-02-01T01:59:20;8.50;;;3.87;;
1320;SDS011;653;51.480;11.992;2023-02-01T02:01:49;22.83;;;6.47;;
1320;SDS011;653;51.480;11.992;2023-02-01T02:04:14;12.13;;;3.27;;
1320;SDS011;653;51.480;11.992;2023-02-01T02:09:06;24.47;;;3.27;;
1320;SDS011;653;51.480;11.992;2023-02-01T02:11:31;16.67;;;3.00;;
1320;SDS011;653;51.480;11.992;2023-02-01T02:13:57;12.50;;;3.57;;
1320;SDS011;653;51.480;11.992;2023-02-01T02:21:55;16.43;;;4.03;;
1320;SDS011;653;51.480;11.992;2023-02-01T02:24:38;7.73;;;3.00;;
1320;SDS011;653;51.480;11.992;2023-02-01T02:27:23;12.80;;;3.90;;
1320;SDS011;653;51.480;11.992;2023-02-01T02:41:48;14.13;;;4.57;;
1320;SDS011;653;51.480;11.992;2023-02-01T02:47:27;10.63;;;3.60;;
1320;SDS011;653;51.480;11.992;2023-02-01T02:52:54;13.60;;;3.50;;
1320;SDS011;653;51.480;11.992;2023-02-01T02:55:41;16.83;;;4.83;;
1320;SDS011;653;51.480;11.992;2023-02-01T02:58:07;10.47;;;3.40;;
1320;SDS011;653;51.480;11.992;2023-02-01T03:00:51;11.73;;;3.60;;
1320;SDS011;653;51.480;11.992;2023-02-01T03:03:37;12.37;;;4.17;;
1320;SDS011;653;51.480;11.992;2023-02-01T03:06:22;13.27;;;5.93;;
1320;SDS011;653;51.480;11.992;2023-02-01T03:08:47;9.50;;;2.90;;
1320;SDS011;653;51.480;11.992;2023-02-01T03:11:14;8.20;;;3.97;;
1320;SDS011;653;51.480;11.992;2023-02-01T03:16:31;7.83;;;3.80;;
1320;SDS011;653;51.480;11.992;2023-02-01T03:22:07;9.87;;;3.80;;
1320;SDS011;653;51.480;11.992;2023-02-01T03:24:41;7.47;;;3.10;;
1320;SDS011;653;51.480;11.992;2023-02-01T03:29:48;9.90;;;3.63;;
1320;SDS011;653;51.480;11.992;2023-02-01T03:32:14;11.50;;;6.20;;
1320;SDS011;653;51.480;11.992;2023-02-01T03:34:40;7.97;;;2.90;;
1320;SDS011;653;51.480;11.992;2023-02-01T03:37:10;8.50;;;3.67;;
1320;SDS011;653;51.480;11.992;2023-02-01T03:42:27;9.40;;;3.53;;
1320;SDS011;653;51.480;11.992;2023-02-01T03:47:50;12.93;;;4.27;;
1320;SDS011;653;51.480;11.992;2023-02-01T03:50:21;11.13;;;3.50;;
1320;SDS011;653;51.480;11.992;2023-02-01T03:53:09;10.53;;;3.70;;
1320;SDS011;653;51.480;11.992;2023-02-01T03:55:37;7.73;;;3.50;;
1320;SDS011;653;51.480;11.992;2023-02-01T03:58:05;4.07;;;3.03;;
1320;SDS011;653;51.480;11.992;2023-02-01T04:00:33;11.63;;;3.43;;
1320;SDS011;653;51.480;11.992;2023-02-01T04:02:58;14.13;;;4.70;;
1320;SDS011;653;51.480;11.992;2023-02-01T04:05:24;13.90;;;3.87;;
1320;SDS011;653;51.480;11.992;2023-02-01T04:07:49;8.67;;;3.73;;
1320;SDS011;653;51.480;11.992;2023-02-01T04:10:15;10.23;;;2.83;;
1320;SDS011;653;51.480;11.992;2023-02-01T04:12:41;11.67;;;4.00;;
1320;SDS011;653;51.480;11.992;2023-02-01T04:15:07;11.67;;;4.40;;
1320;SDS011;653;51.480;11.992;2023-02-01T04:17:33;17.63;;;4.13;;
1320;SDS011;653;51.480;11.992;2023-02-01T04:19:58;12.17;;;3.57;;
1320;SDS011;653;51.480;11.992;2023-02-01T04:22:23;9.43;;;3.93;;
1320;SDS011;653;51.480;11.992;2023-02-01T04:24:49;15.20;;;5.20;;
1320;SDS011;653;51.480;11.992;2023-02-01T04:27:14;11.97;;;4.00;;
1320;SDS011;653;51.480;11.992;2023-02-01T04:29:40;9.73;;;4.20;;
1320;SDS011;653;51.480;11.992;2023-02-01T04:32:06;12.60;;;4.20;;
1320;SDS011;653;51.480;11.992;2023-02-01T04:34:31;19.23;;;3.97;;
1320;SDS011;653;51.480;11.992;2023-02-01T04:36:57;9.80;;;3.40;;
1320;SDS011;653;51.480;11.992;2023-02-01T04:39:22;9.50;;;3.23;;
1320;SDS011;653;51.480;11.992;2023-02-01T04:41:48;9.87;;;3.80;;
1320;SDS011;653;51.480;11.992;2023-02-01T04:44:14;9.13;;;3.40;;
1320;SDS011;653;51.480;11.992;2023-02-01T04:46:41;9.97;;;3.30;;
1320;SDS011;653;51.480;11.992;2023-02-01T04:49:08;8.97;;;3.37;;
1320;SDS011;653;51.480;11.992;2023-02-01T04:51:34;11.50;;;3.47;;
1320;SDS011;653;51.480;11.992;2023-02-01T04:53:59;19.30;;;4.60;;
1320;SDS011;653;51.480;11.992;2023-02-01T04:56:25;10.77;;;4.13;;
1320;SDS011;653;51.480;11.992;2023-02-01T04:58:50;11.77;;;3.50;;
1320;SDS011;653;51.480;11.992;2023-02-01T05:01:16;11.60;;;3.50;;
1320;SDS011;653;51.480;11.992;2023-02-01T05:03:41;11.13;;;3.77;;
1320;SDS011;653;51.480;11.992;2023-02-01T05:06:06;18.10;;;4.07;;
1320;SDS011;653;51.480;11.992;2023-02-01T05:08:32;9.43;;;4.03;;
1320;SDS011;653;51.480;11.992;2023-02-01T05:10:57;11.77;;;3.90;;
1320;SDS011;653;51.480;11.992;2023-02-01T05:13:24;10.50;;;3.90;;
1320;SDS011;653;51.480;11.992;2023-02-01T05:16:08;16.97;;;5.40;;
1320;SDS011;653;51.480;11.992;2023-02-01T05:18:33;6.03;;;3.33;;
1320;SDS011;653;51.480;11.992;2023-02-01T05:20:58;12.13;;;4.80;;
1320;SDS011;653;51.480;11.992;2023-02-01T05:23:24;12.33;;;4.10;;
1320;SDS011;653;51.480;11.992;2023-02-01T05:25:49;14.87;;;5.40;;
1320;SDS011;653;51.480;11.992;2023-02-01T05:28:15;14.93;;;6.27;;
1320;SDS011;653;51.480;11.992;2023-02-01T05:30:40;15.00;;;4.20;;
1320;SDS011;653;51.480;11.992;2023-02-01T05:33:06;10.73;;;4.60;;
1320;SDS011;653;51.480;11.992;2023-02-01T05:35:31;9.13;;;3.80;;
1320;SDS011;653;51.480;11.992;2023-02-01T05:37:56;14.87;;;4.20;;
1320;SDS011;653;51.480;11.992;2023-02-01T05:40:22;7.03;;;4.23;;
1320;SDS011;653;51.480;11.992;2023-02-01T05:42:47;12.53;;;3.73;;
1320;SDS011;653;51.480;11.992;2023-02-01T05:45:14;18.43;;;5.40;;
1320;SDS011;653;51.480;11.992;2023-02-01T05:47:39;9.20;;;4.37;;
1320;SDS011;653;51.480;11.992;2023-02-01T05:50:05;16.27;;;4.73;;
1320;SDS011;653;51.480;11.992;2023-02-01T05:52:31;9.33;;;3.87;;
1320;SDS011;653;51.480;11.992;2023-02-01T05:54:57;9.97;;;4.40;;
1320;SDS011;653;51.480;11.992;2023-02-01T05:57:22;10.37;;;5.27;;
1320;SDS011;653;51.480;11.992;2023-02-01T05:59:51;9.63;;;4.33;;
1320;SDS011;653;51.480;11.992;2023-02-01T06:02:16;7.20;;;4.50;;
1320;SDS011;653;51.480;11.992;2023-02-01T06:04:42;12.53;;;4.80;;
1320;SDS011;653;51.480;11.992;2023-02-01T06:07:08;9.83;;;4.83;;
1320;SDS011;653;51.480;11.992;2023-02-01T06:09:35;9.07;;;3.77;;
1320;SDS011;653;51.480;11.992;2023-02-01T06:12:01;14.10;;;5.20;;
1320;SDS011;653;51.480;11.992;2023-02-01T06:14:28;5.63;;;3.63;;
1320;SDS011;653;51.480;11.992;2023-02-01T06:16:54;6.70;;;3.33;;
1320;SDS011;653;51.480;11.992;2023-02-01T06:19:20;8.07;;;3.17;;
1320;SDS011;653;51.480;11.992;2023-02-01T06:21:46;10.27;;;4.20;;
1320;SDS011;653;51.480;11.992;2023-02-01T06:24:14;7.57;;;3.03;;
1320;SDS011;653;51.480;11.992;2023-02-01T06:26:41;9.57;;;3.40;;
1320;SDS011;653;51.480;11.992;2023-02-01T06:29:06;6.10;;;3.40;;
1320;SDS011;653;51.480;11.992;2023-02-01T06:31:32;7.57;;;3.47;;
1320;SDS011;653;51.480;11.992;2023-02-01T06:33:58;11.60;;;3.70;;
1320;SDS011;653;51.480;11.992;2023-02-01T06:36:23;6.43;;;3.23;;
1320;SDS011;653;51.480;11.992;2023-02-01T06:38:49;10.63;;;4.10;;
1320;SDS011;653;51.480;11.992;2023-02-01T06:41:15;15.50;;;3.90;;
1320;SDS011;653;51.480;11.992;2023-02-01T06:43:41;5.73;;;3.60;;
1320;SDS011;653;51.480;11.992;2023-02-01T06:46:07;9.07;;;3.67;;
1320;SDS011;653;51.480;11.992;2023-02-01T06:48:36;10.80;;;4.00;;
1320;SDS011;653;51.480;11.992;2023-02-01T06:51:02;8.90;;;3.87;;
1320;SDS011;653;51.480;11.992;2023-02-01T06:53:28;7.40;;;3.30;;
1320;SDS011;653;51.480;11.992;2023-02-01T06:55:54;11.13;;;3.77;;
1320;SDS011;653;51.480;11.992;2023-02-01T06:58:20;13.60;;;4.80;;
1320;SDS011;653;51.480;11.992;2023-02-01T07:00:46;10.27;;;4.77;;
1320;SDS011;653;51.480;11.992;2023-02-01T07:03:12;6.10;;;3.53;;
1320;SDS011;653;51.480;11.992;2023-02-01T07:05:37;4.30;;;2.80;;
1320;SDS011;653;51.480;11.992;2023-02-01T07:08:11;3.60;;;2.50;;
1320;SDS011;653;51.480;11.992;2023-02-01T07:10:36;9.63;;;3.60;;
1320;SDS011;653;51.480;11.992;2023-02-01T07:13:03;7.37;;;3.70;;
1320;SDS011;653;51.480;11.992;2023-02-01T07:15:28;12.53;;;4.00;;
1320;SDS011;653;51.480;11.992;2023-02-01T07:17:54;14.07;;;4.43;;
1320;SDS011;653;51.480;11.992;2023-02-01T07:20:20;12.83;;;5.27;;
1320;SDS011;653;51.480;11.992;2023-02-01T07:22:46;9.83;;;4.80;;
1320;SDS011;653;51.480;11.992;2023-02-01T07:25:11;7.77;;;5.17;;
1320;SDS011;653;51.480;11.992;2023-02-01T07:27:37;11.60;;;4.30;;
1320;SDS011;653;51.480;11.992;2023-02-01T07:30:03;5.33;;;3.57;;
1320;SDS011;653;51.480;11.992;2023-02-01T07:32:29;7.67;;;4.00;;
1320;SDS011;653;51.480;11.992;2023-02-01T07:34:55;7.87;;;3.60;;
1320;SDS011;653;51.480;11.992;2023-02-01T07:37:21;12.27;;;4.17;;
1320;SDS011;653;51.480;11.992;2023-02-01T07:39:49;12.67;;;4.10;;
1320;SDS011;653;51.480;11.992;2023-02-01T07:42:17;7.83;;;3.83;;
1320;SDS011;653;51.480;11.992;2023-02-01T07:44:43;14.83;;;5.43;;
1320;SDS011;653;51.480;11.992;2023-02-01T07:47:08;10.40;;;3.83;;
1320;SDS011;653;51.480;11.992;2023-02-01T07:49:33;10.37;;;4.20;;
1320;SDS011;653;51.480;11.992;2023-02-01T07:51:59;8.50;;;3.33;;
1320;SDS011;653;51.480;11.992;2023-02-01T07:54:25;10.80;;;4.90;;
1320;SDS011;653;51.480;11.992;2023-02-01T07:56:50;12.43;;;4.10;;
1320;SDS011;653;51.480;11.992;2023-02-01T07:59:16;7.77;;;3.60;;
1320;SDS011;653;51.480;11.992;2023-02-01T08:01:42;6.43;;;3.37;;
1320;SDS011;653;51.480;11.992;2023-02-01T08:04:07;8.23;;;3.10;;
1320;SDS011;653;51.480;11.992;2023-02-01T08:06:35;9.60;;;4.57;;
1320;SDS011;653;51.480;11.992;2023-02-01T08:09:01;9.33;;;3.20;;
1320;SDS011;653;51.480;11.992;2023-02-01T08:11:26;21.30;;;3.43;;
1320;SDS011;653;51.480;11.992;2023-02-01T08:13:52;7.67;;;4.17;;
1320;SDS011;653;51.480;11.992;2023-02-01T08:16:18;8.00;;;3.70;;
1320;SDS011;653;51.480;11.992;2023-02-01T08:18:44;14.23;;;3.43;;
1320;SDS011;653;51.480;11.992;2023-02-01T08:21:11;10.93;;;4.60;;
1320;SDS011;653;51.480;11.992;2023-02-01T08:23:39;5.03;;;3.37;;
1320;SDS011;653;51.480;11.992;2023-02-01T08:28:40;11.43;;;4.23;;
1320;SDS011;653;51.480;11.992;2023-02-01T08:31:11;12.17;;;4.30;;
1320;SDS011;653;51.480;11.992;2023-02-01T08:33:39;6.50;;;2.90;;
1320;SDS011;653;51.480;11.992;2023-02-01T08:36:06;6.50;;;4.17;;
1320;SDS011;653;51.480;11.992;2023-02-01T08:38:34;4.93;;;4.33;;
1320;SDS011;653;51.480;11.992;2023-02-01T08:41:14;4.13;;;3.70;;
1320;SDS011;653;51.480;11.992;2023-02-01T08:43:47;11.77;;;3.43;;
1320;SDS011;653;51.480;11.992;2023-02-01T08:46:13;7.47;;;3.70;;
1320;SDS011;653;51.480;11.992;2023-02-01T08:48:38;9.13;;;3.93;;
1320;SDS011;653;51.480;11.992;2023-02-01T08:51:04;9.93;;;4.07;;
1320;SDS011;653;51.480;11.992;2023-02-01T08:53:31;11.17;;;3.90;;
1320;SDS011;653;51.480;11.992;2023-02-01T08:55:57;4.83;;;4.20;;
1320;SDS011;653;51.480;11.992;2023-02-01T08:58:22;14.93;;;4.87;;
1320;SDS011;653;51.480;11.992;2023-02-01T09:00:50;15.40;;;6.73;;
1320;SDS011;653;51.480;11.992;2023-02-01T09:03:20;9.50;;;5.13;;
1320;SDS011;653;51.480;11.992;2023-02-01T09:05:45;9.73;;;5.30;;
1320;SDS011;653;51.480;11.992;2023-02-01T09:08:11;6.57;;;5.10;;
1320;SDS011;653;51.480;11.992;2023-02-01T09:10:40;8.97;;;4.73;;
1320;SDS011;653;51.480;11.992;2023-02-01T09:13:06;11.43;;;5.53;;
1320;SDS011;653;51.480;11.992;2023-02-01T09:15:33;14.83;;;5.10;;
1320;SDS011;653;51.480;11.992;2023-02-01T09:17:59;8.73;;;5.27;;
1320;SDS011;653;51.480;11.992;2023-02-01T09:20:24;13.73;;;5.40;;
1320;SDS011;653;51.480;11.992;2023-02-01T09:22:54;10.07;;;5.83;;
1320;SDS011;653;51.480;11.992;2023-02-01T09:25:20;8.87;;;5.60;;
1320;SDS011;653;51.480;11.992;2023-02-01T09:27:45;15.00;;;5.83;;
1320;SDS011;653;51.480;11.992;2023-02-01T09:30:11;13.40;;;5.57;;
1320;SDS011;653;51.480;11.992;2023-02-01T09:32:39;13.13;;;6.23;;
1320;SDS011;653;51.480;11.992;2023-02-01T09:35:05;9.30;;;5.70;;
1320;SDS011;653;51.480;11.992;2023-02-01T09:37:30;11.63;;;6.20;;
1320;SDS011;653;51.480;11.992;2023-02-01T09:39:56;10.60;;;6.40;;
1320;SDS011;653;51.480;11.992;2023-02-01T09:48:18;11.63;;;5.13;;
1320;SDS011;653;51.480;11.992;2023-02-01T09:50:50;9.83;;;5.43;;
1320;SDS011;653;51.480;11.992;2023-02-01T09:55:51;11.03;;;5.17;;
1320;SDS011;653;51.480;11.992;2023-02-01T09:58:29;10.13;;;4.20;;
1320;SDS011;653;51.480;11.992;2023-02-01T10:01:03;14.60;;;7.80;;
1320;SDS011;653;51.480;11.992;2023-02-01T10:03:30;11.23;;;4.90;;
1320;SDS011;653;51.480;11.992;2023-02-01T10:11:18;14.50;;;4.90;;
1320;SDS011;653;51.480;11.992;2023-02-01T10:22:46;8.27;;;3.80;;
1320;SDS011;653;51.480;11.992;2023-02-01T10:25:27;10.30;;;5.40;;
1320;SDS011;653;51.480;11.992;2023-02-01T10:27:54;6.43;;;3.97;;
1320;SDS011;653;51.480;11.992;2023-02-01T10:30:21;7.50;;;3.03;;
1320;SDS011;653;51.480;11.992;2023-02-01T10:32:55;13.07;;;4.40;;
1320;SDS011;653;51.480;11.992;2023-02-01T10:35:24;6.37;;;3.53;;
1320;SDS011;653;51.480;11.992;2023-02-01T10:37:52;5.33;;;2.60;;
1320;SDS011;653;51.480;11.992;2023-02-01T10:40:22;12.97;;;3.43;;
1320;SDS011;653;51.480;11.992;2023-02-01T10:43:01;6.73;;;2.70;;
1320;SDS011;653;51.480;11.992;2023-02-01T10:45:28;6.10;;;3.30;;
1320;SDS011;653;51.480;11.992;2023-02-01T10:47:56;6.20;;;3.47;;
1320;SDS011;653;51.480;11.992;2023-02-01T10:56:08;9.17;;;2.90;;
1320;SDS011;653;51.480;11.992;2023-02-01T10:58:35;5.97;;;3.27;;
1320;SDS011;653;51.480;11.992;2023-02-01T11:01:06;6.67;;;1.90;;
1320;SDS011;653;51.480;11.992;2023-02-01T11:08:56;8.97;;;3.30;;
1320;SDS011;653;51.480;11.992;2023-02-01T11:11:30;9.20;;;4.03;;
1320;SDS011;653;51.480;11.992;2023-02-01T11:14:00;12.27;;;3.83;;
1320;SDS011;653;51.480;11.992;2023-02-01T11:16:34;6.77;;;2.77;;
1320;SDS011;653;51.480;11.992;2023-02-01T11:19:01;3.47;;;2.50;;
1320;SDS011;653;51.480;11.992;2023-02-01T11:21:27;7.13;;;3.00;;
1320;SDS011;653;51.480;11.992;2023-02-01T11:23:53;9.43;;;3.50;;
1320;SDS011;653;51.480;11.992;2023-02-01T11:26:23;6.80;;;3.33;;
1320;SDS011;653;51.480;11.992;2023-02-01T11:28:59;8.60;;;3.43;;
1320;SDS011;653;51.480;11.992;2023-02-01T11:31:28;9.63;;;3.70;;
1320;SDS011;653;51.480;11.992;2023-02-01T11:33:55;9.73;;;3.20;;
1320;SDS011;653;51.480;11.992;2023-02-01T11:36:26;5.67;;;3.23;;
1320;SDS011;653;51.480;11.992;2023-02-01T11:39:18;9.17;;;3.37;;
1320;SDS011;653;51.480;11.992;2023-02-01T11:41:41;9.53;;;4.93;;
1320;SDS011;653;51.480;11.992;2023-02-01T11:44:26;9.13;;;3.33;;
1320;SDS011;653;51.480;11.992;2023-02-01T11:46:55;9.30;;;3.50;;
1320;SDS011;653;51.480;11.992;2023-02-01T11:49:25;9.00;;;3.50;;
1320;SDS011;653;51.480;11.992;2023-02-01T11:51:59;6.43;;;3.23;;
1320;SDS011;653;51.480;11.992;2023-02-01T11:54:30;12.03;;;3.40;;
1320;SDS011;653;51.480;11.992;2023-02-01T11:59:49;7.67;;;3.43;;
1320;SDS011;653;51.480;11.992;2023-02-01T12:19:48;10.03;;;2.83;;
1320;SDS011;653;51.480;11.992;2023-02-01T12:25:25;8.23;;;3.27;;
1320;SDS011;653;51.480;11.992;2023-02-01T12:39:01;11.97;;;3.13;;
1320;SDS011;653;51.480;11.992;2023-02-01T12:47:00;5.23;;;2.70;;
1320;SDS011;653;51.480;11.992;2023-02-01T12:49:41;9.03;;;2.80;;
1320;SDS011;653;51.480;11.992;2023-02-01T12:52:12;6.13;;;3.40;;
1320;SDS011;653;51.480;11.992;2023-02-01T12:54:46;9.70;;;3.73;;
1320;SDS011;653;51.480;11.992;2023-02-01T12:57:17;5.27;;;3.07;;
1320;SDS011;653;51.480;11.992;2023-02-01T12:59:50;5.20;;;3.00;;
1320;SDS011;653;51.480;11.992;2023-02-01T13:02:35;8.30;;;3.00;;
1320;SDS011;653;51.480;11.992;2023-02-01T13:05:44;7.80;;;3.00;;
1320;SDS011;653;51.480;11.992;2023-02-01T13:08:14;5.20;;;2.63;;
1320;SDS011;653;51.480;11.992;2023-02-01T13:13:22;11.93;;;3.77;;
1320;SDS011;653;51.480;11.992;2023-02-01T13:16:13;5.83;;;3.50;;
1320;SDS011;653;51.480;11.992;2023-02-01T13:18:41;8.43;;;4.07;;
1320;SDS011;653;51.480;11.992;2023-02-01T13:21:10;6.97;;;3.20;;
1320;SDS011;653;51.480;11.992;2023-02-01T13:23:40;7.47;;;2.90;;
1320;SDS011;653;51.480;11.992;2023-02-01T13:26:06;6.40;;;3.67;;
1320;SDS011;653;51.480;11.992;2023-02-01T13:36:26;7.13;;;2.90;;
1320;SDS011;653;51.480;11.992;2023-02-01T13:44:19;7.20;;;3.23;;
1320;SDS011;653;51.480;11.992;2023-02-01T13:46:54;7.83;;;2.97;;
1320;SDS011;653;51.480;11.992;2023-02-01T13:49:29;8.77;;;4.47;;
1320;SDS011;653;51.480;11.992;2023-02-01T13:51:57;7.67;;;3.17;;
1320;SDS011;653;51.480;11.992;2023-02-01T13:56:51;8.47;;;3.73;;
1320;SDS011;653;51.480;11.992;2023-02-01T14:26:26;10.17;;;4.60;;
1320;SDS011;653;51.480;11.992;2023-02-01T14:29:41;4.97;;;3.20;;
1320;SDS011;653;51.480;11.992;2023-02-01T14:32:00;8.30;;;3.50;;
1320;SDS011;653;51.480;11.992;2023-02-01T14:42:22;8.87;;;3.83;;
1320;SDS011;653;51.480;11.992;2023-02-01T14:44:52;6.20;;;3.43;;
1320;SDS011;653;51.480;11.992;2023-02-01T14:52:30;6.20;;;4.13;;
1320;SDS011;653;51.480;11.992;2023-02-01T14:55:00;12.47;;;4.07;;
1320;SDS011;653;51.480;11.992;2023-02-01T14:57:30;7.90;;;2.90;;
1320;SDS011;653;51.480;11.992;2023-02-01T15:00:00;8.83;;;3.73;;
1320;SDS011;653;51.480;11.992;2023-02-01T15:02:32;7.33;;;4.20;;
1320;SDS011;653;51.480;11.992;2023-02-01T15:05:00;6.77;;;4.07;;
1320;SDS011;653;51.480;11.992;2023-02-01T15:07:25;6.20;;;4.37;;
1320;SDS011;653;51.480;11.992;2023-02-01T15:09:53;7.07;;;3.30;;
1320;SDS011;653;51.480;11.992;2023-02-01T15:12:25;6.07;;;4.10;;
1320;SDS011;653;51.480;11.992;2023-02-01T15:15:11;6.13;;;3.90;;
1320;SDS011;653;51.480;11.992;2023-02-01T15:22:55;6.70;;;3.73;;
1320;SDS011;653;51.480;11.992;2023-02-01T15:25:28;9.10;;;3.50;;
1320;SDS011;653;51.480;11.992;2023-02-01T15:27:55;7.07;;;3.30;;
1320;SDS011;653;51.480;11.992;2023-02-01T15:32:50;8.23;;;2.93;;
1320;SDS011;653;51.480;11.992;2023-02-01T15:35:32;11.33;;;3.80;;
1320;SDS011;653;51.480;11.992;2023-02-01T15:41:04;5.63;;;3.00;;
1320;SDS011;653;51.480;11.992;2023-02-01T15:43:34;6.93;;;2.80;;
1320;SDS011;653;51.480;11.992;2023-02-01T15:46:03;4.10;;;2.47;;
1320;SDS011;653;51.480;11.992;2023-02-01T15:48:35;2.77;;;1.80;;
1320;SDS011;653;51.480;11.992;2023-02-01T15:51:03;2.90;;;1.40;;
1320;SDS011;653;51.480;11.992;2023-02-01T15:53:29;2.80;;;1.33;;
1320;SDS011;653;51.480;11.992;2023-02-01T15:55:58;2.30;;;1.00;;
1320;SDS011;653;51.480;11.992;2023-02-01T15:58:24;1.40;;;1.00;;
1320;SDS011;653;51.480;11.992;2023-02-01T16:00:51;1.60;;;0.50;;
1320;SDS011;653;51.480;11.992;2023-02-01T16:05:58;1.47;;;0.70;;
1320;SDS011;653;51.480;11.992;2023-02-01T16:08:28;1.03;;;0.60;;
1320;SDS011;653;51.480;11.992;2023-02-01T16:10:59;1.20;;;0.53;;
1320;SDS011;653;51.480;11.992;2023-02-01T16:13:34;1.17;;;0.70;;
1320;SDS011;653;51.480;11.992;2023-02-01T16:16:00;1.30;;;0.50;;
1320;SDS011;653;51.480;11.992;2023-02-01T16:18:26;1.40;;;0.60;;
1320;SDS011;653;51.480;11.992;2023-02-01T16:20:51;3.17;;;1.90;;
1320;SDS011;653;51.480;11.992;2023-02-01T16:23:18;1.97;;;0.93;;
1320;SDS011;653;51.480;11.992;2023-02-01T16:25:46;2.00;;;0.53;;
1320;SDS011;653;51.480;11.992;2023-02-01T16:28:13;2.50;;;0.57;;
1320;SDS011;653;51.480;11.992;2023-02-01T16:30:39;1.47;;;0.80;;
1320;SDS011;653;51.480;11.992;2023-02-01T16:33:05;1.10;;;0.60;;
1320;SDS011;653;51.480;11.992;2023-02-01T16:35:36;1.37;;;0.73;;
1320;SDS011;653;51.480;11.992;2023-02-01T16:38:09;2.07;;;0.60;;
1320;SDS011;653;51.480;11.992;2023-02-01T16:40:39;2.00;;;0.77;;
1320;SDS011;653;51.480;11.992;2023-02-01T16:43:17;1.80;;;0.70;;
1320;SDS011;653;51.480;11.992;2023-02-01T16:45:44;4.13;;;1.43;;
1320;SDS011;653;51.480;11.992;2023-02-01T16:48:24;1.70;;;0.60;;
1320;SDS011;653;51.480;11.992;2023-02-01T16:50:54;3.03;;;0.80;;
1320;SDS011;653;51.480;11.992;2023-02-01T16:53:30;3.80;;;0.90;;
1320;SDS011;653;51.480;11.992;2023-02-01T16:55:57;3.33;;;0.90;;
1320;SDS011;653;51.480;11.992;2023-02-01T16:58:23;6.60;;;2.80;;
1320;SDS011;653;51.480;11.992;2023-02-01T17:00:51;2.07;;;1.10;;
1320;SDS011;653;51.480;11.992;2023-02-01T17:03:17;6.40;;;0.90;;
1320;SDS011;653;51.480;11.992;2023-02-01T17:05:46;4.27;;;0.80;;
1320;SDS011;653;51.480;11.992;2023-02-01T17:08:16;1.40;;;0.70;;
1320;SDS011;653;51.480;11.992;2023-02-01T17:10:53;1.53;;;0.90;;
1320;SDS011;653;51.480;11.992;2023-02-01T17:13:18;2.90;;;1.00;;
1320;SDS011;653;51.480;11.992;2023-02-01T17:16:04;6.90;;;1.00;;
1320;SDS011;653;51.480;11.992;2023-02-01T17:18:34;6.73;;;1.60;;
1320;SDS011;653;51.480;11.992;2023-02-01T17:21:01;5.17;;;0.90;;
1320;SDS011;653;51.480;11.992;2023-02-01T17:23:29;2.83;;;1.00;;
1320;SDS011;653;51.480;11.992;2023-02-01T17:25:56;2.83;;;1.00;;
1320;SDS011;653;51.480;11.992;2023-02-01T17:28:23;2.70;;;1.10;;
1320;SDS011;653;51.480;11.992;2023-02-01T17:30:50;2.57;;;1.03;;
1320;SDS011;653;51.480;11.992;2023-02-01T17:36:20;2.97;;;1.10;;
1320;SDS011;653;51.480;11.992;2023-02-01T17:38:46;2.83;;;0.80;;
1320;SDS011;653;51.480;11.992;2023-02-01T17:41:13;1.87;;;0.80;;
1320;SDS011;653;51.480;11.992;2023-02-01T17:43:40;1.87;;;0.70;;
1320;SDS011;653;51.480;11.992;2023-02-01T17:46:16;1.30;;;0.90;;
1320;SDS011;653;51.480;11.992;2023-02-01T17:48:44;1.13;;;0.60;;
1320;SDS011;653;51.480;11.992;2023-02-01T17:51:21;4.10;;;0.70;;
1320;SDS011;653;51.480;11.992;2023-02-01T17:53:49;2.30;;;0.50;;
1320;SDS011;653;51.480;11.992;2023-02-01T17:56:16;1.83;;;1.00;;
1320;SDS011;653;51.480;11.992;2023-02-01T17:58:45;2.67;;;1.13;;
1320;SDS011;653;51.480;11.992;2023-02-01T18:01:13;2.60;;;0.90;;
1320;SDS011;653;51.480;11.992;2023-02-01T18:03:42;2.40;;;1.10;;
1320;SDS011;653;51.480;11.992;2023-02-01T18:06:15;4.30;;;1.20;;
1320;SDS011;653;51.480;11.992;2023-02-01T18:08:43;1.47;;;0.80;;
1320;SDS011;653;51.480;11.992;2023-02-01T18:11:15;2.03;;;0.73;;
1320;SDS011;653;51.480;11.992;2023-02-01T18:13:48;4.07;;;1.40;;
1320;SDS011;653;51.480;11.992;2023-02-01T18:16:28;2.07;;;1.00;;
1320;SDS011;653;51.480;11.992;2023-02-01T18:19:00;1.53;;;0.90;;
1320;SDS011;653;51.480;11.992;2023-02-01T18:21:47;1.60;;;1.20;;
1320;SDS011;653;51.480;11.992;2023-02-01T18:24:14;2.17;;;1.07;;
1320;SDS011;653;51.480;11.992;2023-02-01T18:26:42;1.77;;;0.93;;
1320;SDS011;653;51.480;11.992;2023-02-01T18:29:08;3.50;;;1.30;;
1320;SDS011;653;51.480;11.992;2023-02-01T18:31:36;5.40;;;1.50;;
1320;SDS011;653;51.480;11.992;2023-02-01T18:34:07;3.63;;;1.30;;
1320;SDS011;653;51.480;11.992;2023-02-01T18:36:35;3.50;;;1.47;;